createdAt,value
2023-03-26T00:00:02.473Z,98522.00
2023-03-26T00:02:31.811Z,98529.00
2023-03-26T00:05:01.130Z,98526.00
2023-03-26T00:07:30.483Z,98538.00
2023-03-26T00:10:00.058Z,98548.00
2023-03-26T00:12:29.367Z,98552.00
2023-03-26T00:14:58.871Z,98548.00
2023-03-26T00:17:28.180Z,98546.00
2023-03-26T00:19:58.098Z,98547.00
2023-03-26T00:22:30.300Z,98559.00
2023-03-26T00:25:00.259Z,98558.00
2023-03-26T00:27:30.241Z,98561.00
2023-03-26T00:30:01.010Z,98561.00
2023-03-26T00:32:31.674Z,98562.00
2023-03-26T00:35:03.523Z,98566.00
2023-03-26T00:37:34.799Z,98566.00
2023-03-26T00:40:07.810Z,98573.00
2023-03-26T00:42:37.405Z,98574.00
2023-03-26T00:45:08.831Z,98578.00
2023-03-26T00:47:41.069Z,98586.00
2023-03-26T00:50:16.314Z,98579.00
2023-03-26T00:52:47.351Z,98586.00
2023-03-26T00:55:17.342Z,98595.00
2023-03-26T00:57:46.970Z,98593.00
2023-03-26T01:00:21.515Z,98590.00
2023-03-26T01:02:50.762Z,98595.00
2023-03-26T01:05:37.787Z,98605.00
2023-03-26T01:08:32.695Z,98604.00
2023-03-26T01:11:22.391Z,98609.00
2023-03-26T01:14:08.386Z,98612.00
2023-03-26T01:16:58.864Z,98617.00
2023-03-26T01:20:08.569Z,98621.00
2023-03-26T01:22:39.961Z,98628.00
2023-03-26T01:25:13.244Z,98624.00
2023-03-26T01:27:50.047Z,98623.00
2023-03-26T01:30:59.625Z,98635.00
2023-03-26T01:34:19.409Z,98637.00
2023-03-26T01:37:26.644Z,98629.00
2023-03-26T01:40:11.731Z,98634.00
2023-03-26T01:43:02.328Z,98638.00
2023-03-26T01:45:39.793Z,98637.00
2023-03-26T01:48:10.147Z,98646.00
2023-03-26T01:50:39.435Z,98642.00
2023-03-26T01:53:11.275Z,98649.00
2023-03-26T01:55:54.803Z,98650.00
2023-03-26T01:59:05.236Z,98651.00
2023-03-26T02:02:06.023Z,98652.00
2023-03-26T02:05:01.311Z,98647.00
2023-03-26T02:08:22.004Z,98656.00
2023-03-26T02:10:58.584Z,98656.00
2023-03-26T02:13:29.222Z,98652.00
2023-03-26T02:16:04.843Z,98655.00
2023-03-26T02:18:40.278Z,98654.00
2023-03-26T02:21:21.106Z,98650.00
2023-03-26T02:24:04.217Z,98656.00
2023-03-26T02:26:36.741Z,98656.00
2023-03-26T02:29:06.517Z,98662.00
2023-03-26T02:31:36.749Z,98663.00
2023-03-26T02:34:06.182Z,98656.00
2023-03-26T02:36:36.798Z,98655.00
2023-03-26T02:39:06.632Z,98653.00
2023-03-26T02:41:35.924Z,98655.00
2023-03-26T02:44:06.815Z,98650.00
2023-03-26T02:46:36.540Z,98650.00
2023-03-26T02:49:05.843Z,98645.00
2023-03-26T02:51:38.472Z,98640.00
2023-03-26T02:54:10.802Z,98644.00
2023-03-26T02:56:40.224Z,98643.00
2023-03-26T02:59:09.489Z,98646.00
2023-03-26T03:01:43.798Z,98645.00
2023-03-26T03:04:13.743Z,98646.00
2023-03-26T03:06:43.159Z,98651.00
2023-03-26T03:09:14.051Z,98646.00
2023-03-26T03:11:43.501Z,98650.00
2023-03-26T03:14:12.762Z,98641.00
2023-03-26T03:16:42.112Z,98639.00
2023-03-26T03:19:11.795Z,98639.00
2023-03-26T03:21:42.910Z,98639.00
2023-03-26T03:24:14.762Z,98639.00
2023-03-26T03:26:46.629Z,98640.00
2023-03-26T03:29:16.073Z,98638.00
2023-03-26T03:31:45.336Z,98634.00
2023-03-26T03:34:14.629Z,98635.00
2023-03-26T03:36:43.862Z,98629.00
2023-03-26T03:39:13.140Z,98627.00
2023-03-26T03:41:42.499Z,98638.00
2023-03-26T03:44:11.835Z,98633.00
2023-03-26T03:46:41.331Z,98627.00
2023-03-26T03:49:10.613Z,98629.00
2023-03-26T03:51:39.852Z,98629.00
2023-03-26T03:54:09.552Z,98628.00
2023-03-26T03:56:39.995Z,98621.00
2023-03-26T03:59:09.941Z,98621.00
2023-03-26T04:01:39.331Z,98628.00
2023-03-26T04:04:08.684Z,98618.00
2023-03-26T04:06:38.016Z,98615.00
2023-03-26T04:09:07.346Z,98616.00
2023-03-26T04:11:36.620Z,98601.00
2023-03-26T04:14:06.140Z,98605.00
2023-03-26T04:16:35.433Z,98598.00
2023-03-26T04:19:05.086Z,98597.00
2023-03-26T04:21:38.646Z,98592.00
2023-03-26T04:24:08.366Z,98580.00
2023-03-26T04:26:37.923Z,98585.00
2023-03-26T04:29:13.784Z,98576.00
2023-03-26T04:31:44.029Z,98577.00
2023-03-26T04:34:27.285Z,98569.00
2023-03-26T04:36:56.521Z,98567.00
2023-03-26T04:39:31.595Z,98557.00
2023-03-26T04:42:01.453Z,98548.00
2023-03-26T04:44:32.804Z,98549.00
2023-03-26T04:47:02.095Z,98543.00
2023-03-26T04:49:31.300Z,98541.00
2023-03-26T04:52:00.958Z,98525.00
2023-03-26T04:54:30.340Z,98524.00
2023-03-26T04:57:03.280Z,98518.00
2023-03-26T04:59:38.520Z,98507.00
2023-03-26T05:02:09.360Z,98514.00
2023-03-26T05:04:41.384Z,98502.00
2023-03-26T05:07:12.277Z,98500.00
2023-03-26T05:09:41.481Z,98507.00
2023-03-26T05:12:10.626Z,98485.00
2023-03-26T05:14:39.801Z,98478.00
2023-03-26T05:17:11.876Z,98468.00
2023-03-26T05:19:42.239Z,98478.00
2023-03-26T05:22:11.429Z,98473.00
2023-03-26T05:24:40.689Z,98462.00
2023-03-26T05:27:10.211Z,98458.00
2023-03-26T05:29:39.689Z,98449.00
2023-03-26T05:32:11.345Z,98443.00
2023-03-26T05:34:44.030Z,98433.00
2023-03-26T05:37:13.224Z,98434.00
2023-03-26T05:39:42.410Z,98429.00
2023-03-26T05:42:11.612Z,98427.00
2023-03-26T05:44:40.777Z,98419.00
2023-03-26T05:47:09.927Z,98417.00
2023-03-26T05:49:39.111Z,98411.00
2023-03-26T05:52:08.576Z,98403.00
2023-03-26T05:54:37.717Z,98406.00
2023-03-26T05:57:07.138Z,98397.00
2023-03-26T05:59:37.607Z,98390.00
2023-03-26T06:02:07.369Z,98386.00
2023-03-26T06:04:36.608Z,98396.00
2023-03-26T06:07:05.882Z,98385.00
2023-03-26T06:09:35.033Z,98381.00
2023-03-26T06:12:04.359Z,98378.00
2023-03-26T06:14:34.075Z,98369.00
2023-03-26T06:17:03.854Z,98356.00
2023-03-26T06:19:33.135Z,98360.00
2023-03-26T06:22:02.329Z,98358.00
2023-03-26T06:24:31.737Z,98356.00
2023-03-26T06:27:00.936Z,98349.00
2023-03-26T06:29:31.503Z,98351.00
2023-03-26T06:32:12.381Z,98343.00
2023-03-26T06:34:48.199Z,98328.00
2023-03-26T06:37:18.531Z,98331.00
2023-03-26T06:39:47.709Z,98335.00
2023-03-26T06:42:17.125Z,98333.00
2023-03-26T06:44:46.303Z,98320.00
2023-03-26T06:47:15.638Z,98324.00
2023-03-26T06:49:45.407Z,98311.00
2023-03-26T06:52:14.649Z,98311.00
2023-03-26T06:54:43.869Z,98303.00
2023-03-26T06:57:13.078Z,98305.00
2023-03-26T06:59:42.428Z,98292.00
2023-03-26T07:02:12.867Z,98283.00
2023-03-26T07:04:42.414Z,98270.00
2023-03-26T07:07:11.620Z,98282.00
2023-03-26T07:09:40.881Z,98279.00
2023-03-26T07:12:10.796Z,98273.00
2023-03-26T07:14:39.994Z,98272.00
2023-03-26T07:17:09.164Z,98262.00
2023-03-26T07:19:38.361Z,98253.00
2023-03-26T07:22:07.989Z,98251.00
2023-03-26T07:24:37.869Z,98252.00
2023-03-26T07:27:47.877Z,98255.00
2023-03-26T07:30:40.657Z,98243.00
2023-03-26T07:33:51.090Z,98237.00
2023-03-26T07:36:50.670Z,98232.00
2023-03-26T07:39:36.441Z,98233.00
2023-03-26T07:42:30.501Z,98221.00
2023-03-26T07:45:42.129Z,98211.00
2023-03-26T07:48:22.592Z,98213.00
2023-03-26T07:50:52.943Z,98204.00
2023-03-26T07:53:23.973Z,98199.00
2023-03-26T07:56:09.783Z,98202.00
2023-03-26T07:59:05.848Z,98190.00
2023-03-26T08:02:10.784Z,98192.00
2023-03-26T08:05:39.988Z,98195.00
2023-03-26T08:08:35.908Z,98190.00
2023-03-26T08:11:44.001Z,98189.00
2023-03-26T08:14:41.908Z,98168.00
2023-03-26T08:17:28.320Z,98174.00
2023-03-26T08:20:51.341Z,98171.00
2023-03-26T08:23:51.649Z,98159.00
2023-03-26T08:26:52.826Z,98159.00
2023-03-26T08:29:52.765Z,98157.00
2023-03-26T08:32:22.839Z,98158.00
2023-03-26T08:34:53.702Z,98149.00
2023-03-26T08:37:22.908Z,98152.00
2023-03-26T08:39:52.157Z,98144.00
2023-03-26T08:42:50.886Z,98145.00
2023-03-26T08:46:17.800Z,98142.00
2023-03-26T08:49:07.693Z,98150.00
2023-03-26T08:52:23.990Z,98154.00
2023-03-26T08:55:42.078Z,98148.00
2023-03-26T08:59:06.495Z,98149.00
2023-03-26T09:02:03.071Z,98148.00
2023-03-26T09:05:07.333Z,98141.00
2023-03-26T09:08:20.157Z,98150.00
2023-03-26T09:11:13.293Z,98152.00
2023-03-26T09:14:22.425Z,98138.00
2023-03-26T09:17:16.850Z,98140.00
2023-03-26T09:20:38.826Z,98135.00
2023-03-26T09:23:55.296Z,98135.00
2023-03-26T09:26:31.582Z,98135.00
2023-03-26T09:29:40.269Z,98133.00
2023-03-26T09:32:47.213Z,98134.00
2023-03-26T09:35:54.361Z,98133.00
2023-03-26T09:38:53.405Z,98128.00
2023-03-26T09:41:44.291Z,98132.00
2023-03-26T09:44:33.598Z,98123.00
2023-03-26T09:47:27.331Z,98136.00
2023-03-26T09:50:23.181Z,98137.00
2023-03-26T09:53:22.633Z,98139.00
2023-03-26T09:56:40.683Z,98136.00
2023-03-26T09:59:38.082Z,98138.00
2023-03-26T10:02:18.787Z,98142.00
2023-03-26T10:05:14.980Z,98140.00
2023-03-26T10:08:16.250Z,98146.00
2023-03-26T10:11:03.941Z,98151.00
2023-03-26T10:14:00.676Z,98152.00
2023-03-26T10:16:39.012Z,98156.00
2023-03-26T10:19:44.509Z,98155.00
2023-03-26T10:22:32.209Z,98154.00
2023-03-26T10:26:07.040Z,98155.00
2023-03-26T10:29:09.890Z,98158.00
2023-03-26T10:32:01.622Z,98158.00
2023-03-26T10:35:11.151Z,98156.00
2023-03-26T10:37:59.865Z,98159.00
2023-03-26T10:40:51.432Z,98166.00
2023-03-26T10:44:10.624Z,98172.00
2023-03-26T10:47:21.229Z,98169.00
2023-03-26T10:52:55.117Z,98171.00
2023-03-26T10:55:53.389Z,98180.00
2023-03-26T10:58:48.756Z,98175.00
2023-03-26T11:01:36.970Z,98180.00
2023-03-26T11:04:56.639Z,98182.00
2023-03-26T11:08:04.938Z,98179.00
2023-03-26T11:11:06.926Z,98182.00
2023-03-26T11:13:48.645Z,98177.00
2023-03-26T11:17:14.811Z,98185.00
2023-03-26T11:20:25.974Z,98189.00
2023-03-26T11:23:16.814Z,98188.00
2023-03-26T11:26:18.607Z,98197.00
2023-03-26T11:31:58.698Z,98194.00
2023-03-26T11:34:36.829Z,98192.00
2023-03-26T11:34:43.125Z,98190.00
2023-03-26T11:37:41.932Z,98190.00
2023-03-26T11:40:25.177Z,98199.00
2023-03-26T11:43:05.842Z,98202.00
2023-03-26T11:45:43.758Z,98209.00
2023-03-26T11:48:20.400Z,98208.00
2023-03-26T11:51:27.529Z,98211.00
2023-03-26T11:53:58.690Z,98213.00
2023-03-26T11:57:05.996Z,98217.00
2023-03-26T12:00:21.962Z,98218.00
2023-03-26T12:02:57.142Z,98213.00
2023-03-26T12:05:34.392Z,98215.00
2023-03-26T12:08:21.154Z,98221.00
2023-03-26T12:11:06.390Z,98223.00
2023-03-26T12:13:52.640Z,98230.00
2023-03-26T12:16:23.650Z,98234.00
2023-03-26T12:19:20.203Z,98232.00
2023-03-26T12:21:55.329Z,98246.00
2023-03-26T12:24:42.810Z,98252.00
2023-03-26T12:27:29.344Z,98249.00
2023-03-26T12:30:20.916Z,98258.00
2023-03-26T12:32:54.461Z,98263.00
2023-03-26T12:35:30.259Z,98270.00
2023-03-26T12:38:41.686Z,98265.00
2023-03-26T12:44:43.637Z,98257.00
2023-03-26T12:44:51.503Z,98275.00
2023-03-26T12:47:57.449Z,98273.00
2023-03-26T12:50:36.484Z,98280.00
2023-03-26T12:54:07.822Z,98288.00
2023-03-26T12:57:12.022Z,98292.00
2023-03-26T13:00:21.049Z,98288.00
2023-03-26T13:03:33.207Z,98296.00
2023-03-26T13:06:59.824Z,98298.00
2023-03-26T13:09:59.711Z,98299.00
2023-03-26T13:12:31.556Z,98306.00
2023-03-26T13:15:24.958Z,98304.00
2023-03-26T13:18:08.389Z,98304.00
2023-03-26T13:21:21.763Z,98315.00
2023-03-26T13:24:11.029Z,98314.00
2023-03-26T13:27:33.049Z,98321.00
2023-03-26T13:30:07.196Z,98327.00
2023-03-26T13:33:03.980Z,98338.00
2023-03-26T13:35:46.742Z,98342.00
2023-03-26T13:38:40.887Z,98342.00
2023-03-26T13:41:37.625Z,98342.00
2023-03-26T13:44:20.189Z,98352.00
2023-03-26T13:47:01.805Z,98357.00
2023-03-26T13:49:49.889Z,98370.00
2023-03-26T13:52:45.280Z,98371.00
2023-03-26T13:55:45.638Z,98376.00
2023-03-26T13:58:52.216Z,98382.00
2023-03-26T14:01:57.039Z,98384.00
2023-03-26T14:04:44.757Z,98386.00
2023-03-26T14:08:03.275Z,98383.00
2023-03-26T14:10:44.388Z,98389.00
2023-03-26T14:13:28.419Z,98387.00
2023-03-26T14:16:30.821Z,98388.00
2023-03-26T14:20:07.588Z,98389.00
2023-03-26T14:23:23.366Z,98392.00
2023-03-26T14:26:26.219Z,98394.00
2023-03-26T14:29:11.747Z,98404.00
2023-03-26T14:32:02.778Z,98396.00
2023-03-26T14:34:57.948Z,98401.00
2023-03-26T14:38:10.244Z,98405.00
2023-03-26T14:41:06.859Z,98410.00
2023-03-26T14:44:00.649Z,98412.00
2023-03-26T14:46:52.397Z,98412.00
2023-03-26T14:49:55.566Z,98415.00
